sensor_id;sensor_type;location;lat;lon;timestamp;pressure;altitude;pressure_sealevel;temperature;humidity
26192;BME280;13935;55.672;37.764;2023-04-03T00:00:08;99798.38;;;10.35;100.00
26192;BME280;13935;55.672;37.764;2023-04-03T00:01:15;99801.94;;;10.39;100.00
26192;BME280;13935;55.672;37.764;2023-04-03T00:02:21;99805.50;;;10.36;100.00
26192;BME280;13935;55.672;37.764;2023-04-03T00:03:27;99795.53;;;10.21;100.00
26192;BME280;13935;55.672;37.764;2023-04-03T00:04:39;99808.22;;;10.26;100.00
26192;BME280;13935;55.672;37.764;2023-04-03T00:05:49;99796.28;;;10.15;100.00
26192;BME280;13935;55.672;37.764;2023-04-03T00:06:55;99811.72;;;10.19;100.00
26192;BME280;13935;55.672;37.764;2023-04-03T00:08:03;99809.38;;;10.25;100.00
26192;BME280;13935;55.672;37.764;2023-04-03T00:09:16;99808.13;;;10.15;100.00
26192;BME280;13935;55.672;37.764;2023-04-03T00:10:20;99812.06;;;10.14;100.00
26192;BME280;13935;55.672;37.764;2023-04-03T00:11:28;99809.72;;;10.16;100.00
26192;BME280;13935;55.672;37.764;2023-04-03T00:12:33;99812.03;;;10.11;100.00
26192;BME280;13935;55.672;37.764;2023-04-03T00:13:40;99807.66;;;9.99;100.00
26192;BME280;13935;55.672;37.764;2023-04-03T00:14:45;99811.13;;;9.96;100.00
26192;BME280;13935;55.672;37.764;2023-04-03T00:15:49;99807.22;;;9.97;100.00
26192;BME280;13935;55.672;37.764;2023-04-03T00:17:03;99807.56;;;9.93;100.00
26192;BME280;13935;55.672;37.764;2023-04-03T00:18:10;99811.44;;;9.85;100.00
26192;BME280;13935;55.672;37.764;2023-04-03T00:19:16;99811.03;;;9.83;100.00
26192;BME280;13935;55.672;37.764;2023-04-03T00:20:24;99809.44;;;9.78;100.00
26192;BME280;13935;55.672;37.764;2023-04-03T00:21:29;99807.81;;;9.74;100.00
26192;BME280;13935;55.672;37.764;2023-04-03T00:22:37;99818.84;;;9.74;100.00
26192;BME280;13935;55.672;37.764;2023-04-03T00:23:44;99808.16;;;9.69;100.00
26192;BME280;13935;55.672;37.764;2023-04-03T00:24:50;99810.88;;;9.62;100.00
26192;BME280;13935;55.672;37.764;2023-04-03T00:25:57;99814.78;;;9.61;100.00
26192;BME280;13935;55.672;37.764;2023-04-03T00:27:03;99819.53;;;9.60;100.00
26192;BME280;13935;55.672;37.764;2023-04-03T00:28:12;99819.09;;;9.55;100.00
26192;BME280;13935;55.672;37.764;2023-04-03T00:29:16;99813.06;;;9.46;100.00
26192;BME280;13935;55.672;37.764;2023-04-03T00:30:43;99817.03;;;9.45;100.00
26192;BME280;13935;55.672;37.764;2023-04-03T00:31:56;99807.09;;;9.37;100.00
26192;BME280;13935;55.672;37.764;2023-04-03T00:33:00;99814.59;;;9.40;100.00
26192;BME280;13935;55.672;37.764;2023-04-03T00:34:04;99813.03;;;9.39;100.00
26192;BME280;13935;55.672;37.764;2023-04-03T00:35:08;99817.72;;;9.35;100.00
26192;BME280;13935;55.672;37.764;2023-04-03T00:36:17;99803.91;;;9.35;100.00
26192;BME280;13935;55.672;37.764;2023-04-03T00:37:26;99816.13;;;9.34;100.00
26192;BME280;13935;55.672;37.764;2023-04-03T00:38:31;99809.78;;;9.30;100.00
26192;BME280;13935;55.672;37.764;2023-04-03T00:39:36;99810.56;;;9.30;100.00
26192;BME280;13935;55.672;37.764;2023-04-03T00:40:47;99808.59;;;9.31;100.00
26192;BME280;13935;55.672;37.764;2023-04-03T00:41:58;99814.56;;;9.33;100.00
26192;BME280;13935;55.672;37.764;2023-04-03T00:43:13;99809.44;;;9.35;100.00
26192;BME280;13935;55.672;37.764;2023-04-03T00:45:21;99809.03;;;9.33;100.00
26192;BME280;13935;55.672;37.764;2023-04-03T00:45:55;99814.94;;;9.35;100.00
26192;BME280;13935;55.672;37.764;2023-04-03T00:47:02;99815.38;;;9.37;100.00
26192;BME280;13935;55.672;37.764;2023-04-03T00:48:15;99814.56;;;9.36;100.00
26192;BME280;13935;55.672;37.764;2023-04-03T00:49:27;99810.28;;;9.39;100.00
26192;BME280;13935;55.672;37.764;2023-04-03T00:50:37;99818.56;;;9.39;100.00
26192;BME280;13935;55.672;37.764;2023-04-03T00:51:47;99811.44;;;9.38;100.00
26192;BME280;13935;55.672;37.764;2023-04-03T00:52:54;99806.94;;;9.23;100.00
26192;BME280;13935;55.672;37.764;2023-04-03T00:54:03;99809.66;;;9.20;100.00
26192;BME280;13935;55.672;37.764;2023-04-03T00:55:10;99809.63;;;9.16;100.00
26192;BME280;13935;55.672;37.764;2023-04-03T00:56:18;99806.03;;;9.12;100.00
26192;BME280;13935;55.672;37.764;2023-04-03T00:57:22;99811.16;;;9.10;100.00
26192;BME280;13935;55.672;37.764;2023-04-03T00:58:34;99812.69;;;9.08;100.00
26192;BME280;13935;55.672;37.764;2023-04-03T00:59:48;99803.13;;;8.98;100.00
26192;BME280;13935;55.672;37.764;2023-04-03T01:00:58;99818.09;;;8.97;100.00
26192;BME280;13935;55.672;37.764;2023-04-03T01:02:15;99818.88;;;8.94;100.00
26192;BME280;13935;55.672;37.764;2023-04-03T01:03:20;99817.97;;;8.87;100.00
26192;BME280;13935;55.672;37.764;2023-04-03T01:04:30;99821.50;;;8.84;100.00
26192;BME280;13935;55.672;37.764;2023-04-03T01:05:40;99814.72;;;8.78;100.00
26192;BME280;13935;55.672;37.764;2023-04-03T01:06:47;99819.81;;;8.76;100.00
26192;BME280;13935;55.672;37.764;2023-04-03T01:07:55;99812.66;;;8.71;100.00
26192;BME280;13935;55.672;37.764;2023-04-03T01:09:01;99817.88;;;8.76;100.00
26192;BME280;13935;55.672;37.764;2023-04-03T01:10:09;99812.34;;;8.76;100.00
26192;BME280;13935;55.672;37.764;2023-04-03T01:11:36;99810.66;;;8.68;100.00
26192;BME280;13935;55.672;37.764;2023-04-03T01:12:50;99813.38;;;8.65;100.00
26192;BME280;13935;55.672;37.764;2023-04-03T01:13:56;99820.31;;;8.52;100.00
26192;BME280;13935;55.672;37.764;2023-04-03T01:15:10;99816.72;;;8.48;100.00
26192;BME280;13935;55.672;37.764;2023-04-03T01:16:15;99823.78;;;8.46;100.00
26192;BME280;13935;55.672;37.764;2023-04-03T01:18:39;99821.47;;;8.51;100.00
26192;BME280;13935;55.672;37.764;2023-04-03T01:19:57;99812.91;;;8.59;100.00
26192;BME280;13935;55.672;37.764;2023-04-03T01:21:31;99809.41;;;8.62;100.00
26192;BME280;13935;55.672;37.764;2023-04-03T01:24:31;99812.91;;;8.59;100.00
26192;BME280;13935;55.672;37.764;2023-04-03T01:25:40;99814.59;;;8.67;100.00
26192;BME280;13935;55.672;37.764;2023-04-03T01:26:48;99813.03;;;8.70;100.00
26192;BME280;13935;55.672;37.764;2023-04-03T01:27:59;99818.59;;;8.73;100.00
26192;BME280;13935;55.672;37.764;2023-04-03T01:29:05;99816.53;;;8.63;100.00
26192;BME280;13935;55.672;37.764;2023-04-03T01:30:14;99817.41;;;8.71;100.00
26192;BME280;13935;55.672;37.764;2023-04-03T01:32:01;99820.09;;;8.67;100.00
26192;BME280;13935;55.672;37.764;2023-04-03T01:33:07;99815.41;;;8.71;100.00
26192;BME280;13935;55.672;37.764;2023-04-03T01:34:11;99810.56;;;8.61;100.00
26192;BME280;13935;55.672;37.764;2023-04-03T01:35:21;99821.66;;;8.65;100.00
26192;BME280;13935;55.672;37.764;2023-04-03T01:36:30;99809.78;;;8.61;100.00
26192;BME280;13935;55.672;37.764;2023-04-03T01:37:34;99809.75;;;8.57;100.00
26192;BME280;13935;55.672;37.764;2023-04-03T01:38:37;99810.47;;;8.54;100.00
26192;BME280;13935;55.672;37.764;2023-04-03T01:39:46;99812.75;;;8.46;100.00
26192;BME280;13935;55.672;37.764;2023-04-03T01:40:50;99811.16;;;8.45;100.00
26192;BME280;13935;55.672;37.764;2023-04-03T01:41:53;99804.03;;;8.44;100.00
26192;BME280;13935;55.672;37.764;2023-04-03T01:43:04;99811.19;;;8.48;100.00
26192;BME280;13935;55.672;37.764;2023-04-03T01:44:09;99813.06;;;8.41;100.00
26192;BME280;13935;55.672;37.764;2023-04-03T01:45:17;99810.91;;;8.27;100.00
26192;BME280;13935;55.672;37.764;2023-04-03T01:46:26;99808.00;;;8.17;100.00
26192;BME280;13935;55.672;37.764;2023-04-03T01:48:21;99813.16;;;8.18;100.00
26192;BME280;13935;55.672;37.764;2023-04-03T01:49:26;99811.19;;;8.19;100.00
26192;BME280;13935;55.672;37.764;2023-04-03T01:50:31;99815.59;;;8.23;100.00
26192;BME280;13935;55.672;37.764;2023-04-03T01:51:37;99818.16;;;8.13;100.00
26192;BME280;13935;55.672;37.764;2023-04-03T01:52:40;99822.94;;;8.16;100.00
26192;BME280;13935;55.672;37.764;2023-04-03T01:53:44;99823.22;;;8.11;100.00
26192;BME280;13935;55.672;37.764;2023-04-03T01:54:48;99820.91;;;8.13;100.00
26192;BME280;13935;55.672;37.764;2023-04-03T01:55:55;99813.94;;;8.19;100.00
26192;BME280;13935;55.672;37.764;2023-04-03T01:57:02;99813.19;;;8.22;100.00
26192;BME280;13935;55.672;37.764;2023-04-03T01:58:06;99817.31;;;8.09;100.00
26192;BME280;13935;55.672;37.764;2023-04-03T01:59:10;99823.66;;;8.13;100.00
26192;BME280;13935;55.672;37.764;2023-04-03T02:00:17;99811.63;;;8.21;100.00
26192;BME280;13935;55.672;37.764;2023-04-03T02:01:21;99813.38;;;8.10;100.00
26192;BME280;13935;55.672;37.764;2023-04-03T02:02:26;99815.34;;;8.09;100.00
26192;BME280;13935;55.672;37.764;2023-04-03T02:03:31;99814.84;;;8.04;100.00
26192;BME280;13935;55.672;37.764;2023-04-03T02:04:35;99817.59;;;8.04;100.00
26192;BME280;13935;55.672;37.764;2023-04-03T02:05:41;99804.59;;;8.01;100.00
26192;BME280;13935;55.672;37.764;2023-04-03T02:06:48;99812.03;;;8.00;100.00
26192;BME280;13935;55.672;37.764;2023-04-03T02:07:56;99813.97;;;7.96;100.00
26192;BME280;13935;55.672;37.764;2023-04-03T02:09:00;99817.09;;;7.95;100.00
26192;BME280;13935;55.672;37.764;2023-04-03T02:10:22;99824.50;;;7.91;100.00
26192;BME280;13935;55.672;37.764;2023-04-03T02:11:27;99832.03;;;7.94;100.00
26192;BME280;13935;55.672;37.764;2023-04-03T02:12:32;99823.81;;;7.97;100.00
26192;BME280;13935;55.672;37.764;2023-04-03T02:13:40;99824.41;;;7.84;100.00
26192;BME280;13935;55.672;37.764;2023-04-03T02:14:46;99829.03;;;7.80;100.00
26192;BME280;13935;55.672;37.764;2023-04-03T02:15:50;99830.59;;;7.78;100.00
26192;BME280;13935;55.672;37.764;2023-04-03T02:16:56;99823.44;;;7.73;100.00
26192;BME280;13935;55.672;37.764;2023-04-03T02:17:59;99828.09;;;7.69;100.00
26192;BME280;13935;55.672;37.764;2023-04-03T02:19:14;99837.63;;;7.75;100.00
26192;BME280;13935;55.672;37.764;2023-04-03T02:20:18;99827.44;;;7.79;100.00
26192;BME280;13935;55.672;37.764;2023-04-03T02:21:23;99832.00;;;7.68;100.00
26192;BME280;13935;55.672;37.764;2023-04-03T02:22:27;99826.38;;;7.61;100.00
26192;BME280;13935;55.672;37.764;2023-04-03T02:23:33;99826.50;;;7.68;100.00
26192;BME280;13935;55.672;37.764;2023-04-03T02:24:38;99823.38;;;7.70;100.00
26192;BME280;13935;55.672;37.764;2023-04-03T02:25:44;99825.72;;;7.68;100.00
26192;BME280;13935;55.672;37.764;2023-04-03T02:26:50;99825.72;;;7.68;100.00
26192;BME280;13935;55.672;37.764;2023-04-03T02:27:56;99827.03;;;7.77;100.00
26192;BME280;13935;55.672;37.764;2023-04-03T02:29:01;99828.09;;;7.69;100.00
26192;BME280;13935;55.672;37.764;2023-04-03T02:30:05;99832.75;;;7.65;100.00
26192;BME280;13935;55.672;37.764;2023-04-03T02:31:10;99825.53;;;7.57;100.00
26192;BME280;13935;55.672;37.764;2023-04-03T02:32:15;99837.75;;;7.60;100.00
26192;BME280;13935;55.672;37.764;2023-04-03T02:33:20;99838.97;;;7.62;100.00
26192;BME280;13935;55.672;37.764;2023-04-03T02:34:26;99827.53;;;7.60;100.00
26192;BME280;13935;55.672;37.764;2023-04-03T02:35:31;99823.63;;;7.61;100.00
26192;BME280;13935;55.672;37.764;2023-04-03T02:36:39;99827.06;;;7.55;100.00
26192;BME280;13935;55.672;37.764;2023-04-03T02:37:47;99832.50;;;7.51;100.00
26192;BME280;13935;55.672;37.764;2023-04-03T02:38:50;99825.03;;;7.52;100.00
26192;BME280;13935;55.672;37.764;2023-04-03T02:39:54;99833.22;;;7.48;100.00
26192;BME280;13935;55.672;37.764;2023-04-03T02:41:06;99830.06;;;7.46;100.00
26192;BME280;13935;55.672;37.764;2023-04-03T02:42:13;99834.69;;;7.42;100.00
26192;BME280;13935;55.672;37.764;2023-04-03T02:43:22;99837.13;;;7.47;100.00
26192;BME280;13935;55.672;37.764;2023-04-03T02:44:29;99837.50;;;7.46;100.00
26192;BME280;13935;55.672;37.764;2023-04-03T02:45:35;99834.38;;;7.47;100.00
26192;BME280;13935;55.672;37.764;2023-04-03T02:46:39;99838.38;;;7.50;100.00
26192;BME280;13935;55.672;37.764;2023-04-03T02:47:42;99837.56;;;7.49;100.00
26192;BME280;13935;55.672;37.764;2023-04-03T02:48:48;99837.44;;;7.42;100.00
26192;BME280;13935;55.672;37.764;2023-04-03T02:49:57;99832.38;;;7.44;100.00
26192;BME280;13935;55.672;37.764;2023-04-03T02:51:02;99833.84;;;7.38;100.00
26192;BME280;13935;55.672;37.764;2023-04-03T02:52:06;99839.47;;;7.45;100.00
26192;BME280;13935;55.672;37.764;2023-04-03T02:53:09;99837.13;;;7.47;100.00
26192;BME280;13935;55.672;37.764;2023-04-03T02:54:13;99839.47;;;7.45;100.00
26192;BME280;13935;55.672;37.764;2023-04-03T02:55:22;99845.09;;;7.52;100.00
26192;BME280;13935;55.672;37.764;2023-04-03T02:56:28;99838.44;;;7.53;100.00
26192;BME280;13935;55.672;37.764;2023-04-03T02:57:31;99843.94;;;7.53;100.00
26192;BME280;13935;55.672;37.764;2023-04-03T02:58:38;99839.59;;;7.52;100.00
26192;BME280;13935;55.672;37.764;2023-04-03T02:59:43;99839.66;;;7.56;100.00
26192;BME280;13935;55.672;37.764;2023-04-03T03:00:47;99851.09;;;7.58;100.00
26192;BME280;13935;55.672;37.764;2023-04-03T03:01:54;99845.97;;;7.56;100.00
26192;BME280;13935;55.672;37.764;2023-04-03T03:02:58;99841.59;;;7.55;100.00
26192;BME280;13935;55.672;37.764;2023-04-03T03:04:02;99845.88;;;7.53;100.00
26192;BME280;13935;55.672;37.764;2023-04-03T03:05:08;99841.91;;;7.50;100.00
26192;BME280;13935;55.672;37.764;2023-04-03T03:06:12;99844.66;;;7.50;100.00
26192;BME280;13935;55.672;37.764;2023-04-03T03:07:16;99843.56;;;7.55;100.00
26192;BME280;13935;55.672;37.764;2023-04-03T03:08:19;99844.47;;;7.62;100.00
26192;BME280;13935;55.672;37.764;2023-04-03T03:09:23;99838.25;;;7.65;100.00
26192;BME280;13935;55.672;37.764;2023-04-03T03:10:28;99826.38;;;7.61;100.00
26192;BME280;13935;55.672;37.764;2023-04-03T03:11:31;99841.59;;;7.55;100.00
26192;BME280;13935;55.672;37.764;2023-04-03T03:12:37;99834.09;;;7.52;100.00
26192;BME280;13935;55.672;37.764;2023-04-03T03:13:42;99838.72;;;7.48;100.00
26192;BME280;13935;55.672;37.764;2023-04-03T03:14:46;99834.75;;;7.46;100.00
26192;BME280;13935;55.672;37.764;2023-04-03T03:15:49;99841.78;;;7.43;100.00
26192;BME280;13935;55.672;37.764;2023-04-03T03:16:54;99844.16;;;7.45;100.00
26192;BME280;13935;55.672;37.764;2023-04-03T03:18:01;99840.13;;;7.39;100.00
26192;BME280;13935;55.672;37.764;2023-04-03T03:19:05;99842.53;;;7.40;100.00
26192;BME280;13935;55.672;37.764;2023-04-03T03:20:13;99841.31;;;7.38;100.00
26192;BME280;13935;55.672;37.764;2023-04-03T03:21:18;99845.81;;;7.49;100.00
26192;BME280;13935;55.672;37.764;2023-04-03T03:22:31;99842.88;;;7.61;100.00
26192;BME280;13935;55.672;37.764;2023-04-03T03:23:40;99849.28;;;7.65;100.00
26192;BME280;13935;55.672;37.764;2023-04-03T03:24:45;99845.97;;;7.56;100.00
26192;BME280;13935;55.672;37.764;2023-04-03T03:25:55;99842.59;;;7.44;100.00
26192;BME280;13935;55.672;37.764;2023-04-03T03:26:59;99841.47;;;7.48;100.00
26192;BME280;13935;55.672;37.764;2023-04-03T03:28:07;99843.44;;;7.48;100.00
26192;BME280;13935;55.672;37.764;2023-04-03T03:29:19;99849.94;;;7.59;100.00
26192;BME280;13935;55.672;37.764;2023-04-03T03:30:24;99840.44;;;7.56;100.00
26192;BME280;13935;55.672;37.764;2023-04-03T03:31:26;99842.88;;;7.61;100.00
26192;BME280;13935;55.672;37.764;2023-04-03T03:32:32;99851.47;;;7.56;100.00
26192;BME280;13935;55.672;37.764;2023-04-03T03:33:36;99851.47;;;7.56;100.00
26192;BME280;13935;55.672;37.764;2023-04-03T03:34:39;99852.44;;;7.67;100.00
26192;BME280;13935;55.672;37.764;2023-04-03T03:35:44;99850.06;;;7.66;100.00
26192;BME280;13935;55.672;37.764;2023-04-03T03:36:47;99851.16;;;7.61;100.00
26192;BME280;13935;55.672;37.764;2023-04-03T03:37:53;99846.59;;;7.72;100.00
26192;BME280;13935;55.672;37.764;2023-04-03T03:38:58;99852.03;;;7.65;100.00
26192;BME280;13935;55.672;37.764;2023-04-03T03:40:02;99850.06;;;7.66;100.00
26192;BME280;13935;55.672;37.764;2023-04-03T03:41:10;99858.38;;;7.69;100.00
26192;BME280;13935;55.672;37.764;2023-04-03T03:42:14;99849.34;;;7.72;100.00
26192;BME280;13935;55.672;37.764;2023-04-03T03:43:19;99847.78;;;7.71;100.00
26192;BME280;13935;55.672;37.764;2023-04-03T03:44:25;99853.44;;;7.81;100.00
26192;BME280;13935;55.672;37.764;2023-04-03T03:45:28;99850.69;;;7.81;100.00
26192;BME280;13935;55.672;37.764;2023-04-03T03:46:37;99853.50;;;7.85;100.00
26192;BME280;13935;55.672;37.764;2023-04-03T03:47:41;99848.00;;;7.85;100.00
26192;BME280;13935;55.672;37.764;2023-04-03T03:48:47;99847.78;;;7.97;100.00
26192;BME280;13935;55.672;37.764;2023-04-03T03:49:51;99854.06;;;7.94;100.00
26192;BME280;13935;55.672;37.764;2023-04-03T03:50:59;99852.16;;;7.98;100.00
26192;BME280;13935;55.672;37.764;2023-04-03T03:52:11;99846.34;;;8.03;100.00
26192;BME280;13935;55.672;37.764;2023-04-03T03:53:21;99848.34;;;8.06;100.00
26192;BME280;13935;55.672;37.764;2023-04-03T03:54:28;99849.09;;;8.03;100.00
26192;BME280;13935;55.672;37.764;2023-04-03T03:55:34;99853.81;;;8.02;100.00
26192;BME280;13935;55.672;37.764;2023-04-03T03:56:38;99854.84;;;8.17;100.00
26192;BME280;13935;55.672;37.764;2023-04-03T03:57:41;99857.41;;;8.06;100.00
26192;BME280;13935;55.672;37.764;2023-04-03T03:58:47;99853.81;;;8.02;100.00
26192;BME280;13935;55.672;37.764;2023-04-03T03:59:51;99849.19;;;8.10;100.00
26192;BME280;13935;55.672;37.764;2023-04-03T04:00:55;99852.59;;;8.00;100.00
26192;BME280;13935;55.672;37.764;2023-04-03T04:01:58;99854.63;;;8.03;100.00
26192;BME280;13935;55.672;37.764;2023-04-03T04:03:02;99863.78;;;8.10;100.00
26192;BME280;13935;55.672;37.764;2023-04-03T04:04:06;99850.00;;;8.10;100.00
26192;BME280;13935;55.672;37.764;2023-04-03T04:05:10;99849.19;;;8.10;100.00
26192;BME280;13935;55.672;37.764;2023-04-03T04:06:15;99841.34;;;8.12;100.00
26192;BME280;13935;55.672;37.764;2023-04-03T04:07:22;99846.94;;;8.15;100.00
26192;BME280;13935;55.672;37.764;2023-04-03T04:08:26;99839.91;;;8.18;100.00
26192;BME280;13935;55.672;37.764;2023-04-03T04:09:29;99844.69;;;8.21;100.00
26192;BME280;13935;55.672;37.764;2023-04-03T04:10:32;99844.78;;;8.28;100.00
26192;BME280;13935;55.672;37.764;2023-04-03T04:11:36;99844.81;;;8.31;100.00
26192;BME280;13935;55.672;37.764;2023-04-03T04:12:38;99847.25;;;8.36;100.00
26192;BME280;13935;55.672;37.764;2023-04-03T04:13:42;99850.41;;;8.38;100.00
26192;BME280;13935;55.672;37.764;2023-04-03T04:14:47;99843.38;;;8.41;100.00
26192;BME280;13935;55.672;37.764;2023-04-03T04:15:52;99844.22;;;8.45;100.00
26192;BME280;13935;55.672;37.764;2023-04-03T04:16:55;99850.16;;;8.47;100.00
26192;BME280;13935;55.672;37.764;2023-04-03T04:18:02;99850.56;;;8.49;100.00
26192;BME280;13935;55.672;37.764;2023-04-03T04:19:07;99853.44;;;8.55;100.00
26192;BME280;13935;55.672;37.764;2023-04-03T04:20:14;99847.38;;;8.47;100.00
26192;BME280;13935;55.672;37.764;2023-04-03T04:21:19;99854.59;;;8.54;100.00
26192;BME280;13935;55.672;37.764;2023-04-03T04:22:24;99854.66;;;8.58;100.00
26192;BME280;13935;55.672;37.764;2023-04-03T04:23:28;99858.06;;;8.77;100.00
26192;BME280;13935;55.672;37.764;2023-04-03T04:24:33;99854.63;;;8.87;100.00
26192;BME280;13935;55.672;37.764;2023-04-03T04:25:41;99854.28;;;8.92;100.00
26192;BME280;13935;55.672;37.764;2023-04-03T04:26:45;99852.56;;;8.77;100.00
26192;BME280;13935;55.672;37.764;2023-04-03T04:27:50;99851.44;;;8.85;100.00
26192;BME280;13935;55.672;37.764;2023-04-03T04:28:53;99846.84;;;8.96;100.00
26192;BME280;13935;55.672;37.764;2023-04-03T04:29:56;99848.03;;;8.95;100.00
26192;BME280;13935;55.672;37.764;2023-04-03T04:31:04;99858.31;;;8.98;100.00
26192;BME280;13935;55.672;37.764;2023-04-03T04:32:06;99855.16;;;9.32;100.00
26192;BME280;13935;55.672;37.764;2023-04-03T04:33:09;99848.31;;;9.20;100.00
26192;BME280;13935;55.672;37.764;2023-04-03T04:34:11;99851.25;;;9.37;100.00
26192;BME280;13935;55.672;37.764;2023-04-03T04:35:15;99853.13;;;9.26;100.00
26192;BME280;13935;55.672;37.764;2023-04-03T04:36:20;99847.00;;;9.46;100.00
26192;BME280;13935;55.672;37.764;2023-04-03T04:37:23;99848.72;;;9.58;100.00
26192;BME280;13935;55.672;37.764;2023-04-03T04:38:28;99859.63;;;9.44;100.00
26192;BME280;13935;55.672;37.764;2023-04-03T04:39:30;99855.69;;;9.45;100.00
26192;BME280;13935;55.672;37.764;2023-04-03T04:40:34;99856.06;;;9.47;100.00
26192;BME280;13935;55.672;37.764;2023-04-03T04:41:36;99857.31;;;9.53;100.00
26192;BME280;13935;55.672;37.764;2023-04-03T04:42:40;99859.13;;;9.75;100.00
26192;BME280;13935;55.672;37.764;2023-04-03T04:43:41;99862.56;;;9.65;100.00
26192;BME280;13935;55.672;37.764;2023-04-03T04:44:44;99866.97;;;9.73;100.00
26192;BME280;13935;55.672;37.764;2023-04-03T04:45:48;99863.41;;;9.69;100.00
26192;BME280;13935;55.672;37.764;2023-04-03T04:46:53;99854.97;;;9.55;100.00
26192;BME280;13935;55.672;37.764;2023-04-03T04:47:56;99857.53;;;9.74;100.00
26192;BME280;13935;55.672;37.764;2023-04-03T04:48:59;99851.94;;;9.67;100.00
26192;BME280;13935;55.672;37.764;2023-04-03T04:50:04;99854.81;;;9.81;100.00
26192;BME280;13935;55.672;37.764;2023-04-03T04:51:08;99856.25;;;9.64;100.00
26192;BME280;13935;55.672;37.764;2023-04-03T04:52:11;99855.16;;;9.72;100.00
26192;BME280;13935;55.672;37.764;2023-04-03T04:53:17;99856.75;;;9.77;100.00
26192;BME280;13935;55.672;37.764;2023-04-03T04:54:20;99861.09;;;9.78;100.00
26192;BME280;13935;55.672;37.764;2023-04-03T04:55:27;99861.59;;;9.87;100.00
26192;BME280;13935;55.672;37.764;2023-04-03T04:56:30;99858.81;;;9.87;100.00
26192;BME280;13935;55.672;37.764;2023-04-03T04:57:33;99860.97;;;10.03;100.00
26192;BME280;13935;55.672;37.764;2023-04-03T04:58:41;99858.56;;;9.98;100.00
26192;BME280;13935;55.672;37.764;2023-04-03T04:59:43;99856.25;;;10.04;100.00
26192;BME280;13935;55.672;37.764;2023-04-03T05:00:46;99855.53;;;10.17;100.00
26192;BME280;13935;55.672;37.764;2023-04-03T05:01:48;99852.81;;;10.21;100.00
26192;BME280;13935;55.672;37.764;2023-04-03T05:02:51;99852.94;;;10.38;100.00
26192;BME280;13935;55.672;37.764;2023-04-03T05:03:54;99857.28;;;10.43;100.00
26192;BME280;13935;55.672;37.764;2023-04-03T05:04:58;99858.81;;;10.33;100.00
26192;BME280;13935;55.672;37.764;2023-04-03T05:06:04;99859.63;;;10.37;100.00
26192;BME280;13935;55.672;37.764;2023-04-03T05:07:10;99858.00;;;10.29;100.00
26192;BME280;13935;55.672;37.764;2023-04-03T05:08:13;99857.97;;;10.26;100.00
26192;BME280;13935;55.672;37.764;2023-04-03T05:09:16;99854.91;;;10.41;100.00
26192;BME280;13935;55.672;37.764;2023-04-03T05:10:21;99858.03;;;10.36;100.00
26192;BME280;13935;55.672;37.764;2023-04-03T05:11:24;99860.66;;;10.15;100.00
26192;BME280;13935;55.672;37.764;2023-04-03T05:12:28;99861.75;;;10.00;100.00
26192;BME280;13935;55.672;37.764;2023-04-03T05:13:35;99858.63;;;10.05;100.00
26192;BME280;13935;55.672;37.764;2023-04-03T05:14:38;99850.31;;;10.05;100.00
26192;BME280;13935;55.672;37.764;2023-04-03T05:15:43;99858.31;;;10.17;100.00
26192;BME280;13935;55.672;37.764;2023-04-03T05:16:45;99858.63;;;10.05;100.00
26192;BME280;13935;55.672;37.764;2023-04-03T05:17:52;99856.72;;;10.16;100.00
26192;BME280;13935;55.672;37.764;2023-04-03T05:18:55;99859.56;;;10.27;100.00
26192;BME280;13935;55.672;37.764;2023-04-03T05:19:58;99855.72;;;10.45;100.00
26192;BME280;13935;55.672;37.764;2023-04-03T05:21:02;99862.06;;;10.49;100.00
26192;BME280;13935;55.672;37.764;2023-04-03T05:22:06;99849.38;;;10.41;100.00
26192;BME280;13935;55.672;37.764;2023-04-03T05:23:10;99855.69;;;10.42;100.00
26192;BME280;13935;55.672;37.764;2023-04-03T05:24:15;99858.03;;;10.36;100.00
26192;BME280;13935;55.672;37.764;2023-04-03T05:25:21;99859.53;;;10.23;100.00
26192;BME280;13935;55.672;37.764;2023-04-03T05:26:26;99864.69;;;10.28;100.00
26192;BME280;13935;55.672;37.764;2023-04-03T05:27:30;99858.03;;;10.36;100.00
26192;BME280;13935;55.672;37.764;2023-04-03T05:28:34;99856.47;;;10.39;100.00
26192;BME280;13935;55.672;37.764;2023-04-03T05:29:38;99865.88;;;10.27;100.00
26192;BME280;13935;55.672;37.764;2023-04-03T05:30:56;99861.13;;;10.24;100.00
26192;BME280;13935;55.672;37.764;2023-04-03T05:32:05;99872.13;;;10.17;100.00
26192;BME280;13935;55.672;37.764;2023-04-03T05:33:09;99877.78;;;10.31;100.00
26192;BME280;13935;55.672;37.764;2023-04-03T05:34:18;99868.94;;;10.15;100.00
26192;BME280;13935;55.672;37.764;2023-04-03T05:35:24;99872.19;;;10.24;100.00
26192;BME280;13935;55.672;37.764;2023-04-03T05:36:36;99874.16;;;10.27;100.00
26192;BME280;13935;55.672;37.764;2023-04-03T05:37:52;99864.63;;;10.18;100.00
26192;BME280;13935;55.672;37.764;2023-04-03T05:38:56;99869.38;;;10.17;100.00
26192;BME280;13935;55.672;37.764;2023-04-03T05:39:59;99873.31;;;10.16;100.00
26192;BME280;13935;55.672;37.764;2023-04-03T05:41:01;99872.13;;;10.17;100.00
26192;BME280;13935;55.672;37.764;2023-04-03T05:42:03;99869.75;;;10.16;100.00
26192;BME280;13935;55.672;37.764;2023-04-03T05:43:05;99872.81;;;10.04;100.00
26192;BME280;13935;55.672;37.764;2023-04-03T05:44:11;99870.97;;;10.18;100.00
26192;BME280;13935;55.672;37.764;2023-04-03T05:45:13;99864.19;;;10.12;100.00
26192;BME280;13935;55.672;37.764;2023-04-03T05:46:17;99871.34;;;10.20;100.00
26192;BME280;13935;55.672;37.764;2023-04-03T05:47:23;99867.38;;;10.18;100.00
26192;BME280;13935;55.672;37.764;2023-04-03T05:48:26;99871.72;;;10.15;100.00
26192;BME280;13935;55.672;37.764;2023-04-03T05:49:29;99871.34;;;10.17;100.00